Time;durP1;ratioP1;P1;durP2;ratioP2;P2;SDS_P1;SDS_P2;PMS_P1;PMS_P2;Temp;Humidity;BMP_temperature;BMP_pressure;BME280_temperature;BME280_humidity;BME280_pressure;Samples;Min_cycle;Max_cycle;Signal;HPM_P1;HPM_P2
2023/10/23 00:00:07;;;;;;;5.90;3.10;;;;;;;9.08;100.00;101135.22;5065830;28;20020;-88
2023/10/23 00:02:32;;;;;;;4.80;3.03;;;;;;;9.04;100.00;101139.91;5068307;28;20036;-87
2023/10/23 00:04:58;;;;;;;5.32;3.47;;;;;;;9.10;100.00;101149.66;5068958;28;20485;-88
2023/10/23 00:07:23;;;;;;;4.10;2.95;;;;;;;9.16;100.00;101153.78;5059797;28;20077;-88
2023/10/23 00:09:48;;;;;;;5.40;3.47;;;;;;;9.15;100.00;101146.59;5063869;28;20063;-87
2023/10/23 00:12:14;;;;;;;4.80;3.42;;;;;;;9.16;100.00;101159.38;5062601;28;20486;-88
2023/10/23 00:14:39;;;;;;;4.20;3.10;;;;;;;8.97;100.00;101130.56;5070818;28;20103;-87
2023/10/23 00:17:04;;;;;;;9.68;3.67;;;;;;;9.09;100.00;101153.63;5068334;28;20024;-87
2023/10/23 00:19:30;;;;;;;4.85;3.15;;;;;;;9.04;100.00;101151.09;5083651;28;20358;-87
2023/10/23 00:21:56;;;;;;;5.60;3.78;;;;;;;8.94;100.00;101141.28;5069013;28;20615;-88
2023/10/23 00:24:22;;;;;;;3.55;2.72;;;;;;;8.89;100.00;101137.94;5088278;28;20032;-88
2023/10/23 00:26:47;;;;;;;5.85;3.38;;;;;;;9.00;100.00;101149.38;5063085;28;20020;-88
2023/10/23 00:29:13;;;;;;;4.78;3.50;;;;;;;9.02;100.00;101153.44;5073955;28;20085;-88
2023/10/23 00:31:38;;;;;;;8.57;3.65;;;;;;;8.98;100.00;101146.97;5063785;28;20059;-87
2023/10/23 00:34:03;;;;;;;5.35;4.85;;;;;;;8.94;100.00;101134.91;5059726;28;20036;-87
2023/10/23 00:36:29;;;;;;;6.68;3.65;;;;;;;8.88;100.00;101125.19;5066772;28;20026;-87
2023/10/23 00:38:54;;;;;;;5.57;3.65;;;;;;;9.01;100.00;101157.41;5083219;28;20057;-87
2023/10/23 00:41:20;;;;;;;5.20;3.35;;;;;;;8.90;100.00;101150.75;5066301;28;20540;-87
2023/10/23 00:43:45;;;;;;;4.53;3.10;;;;;;;8.90;100.00;101150.75;5068131;28;20051;-87
2023/10/23 00:46:14;;;;;;;6.00;3.58;;;;;;;8.94;100.00;101148.88;5065909;28;20453;-88
2023/10/23 00:48:41;;;;;;;4.32;3.70;;;;;;;8.88;100.00;101158.69;5062091;28;20028;-88
2023/10/23 00:51:09;;;;;;;7.93;3.72;;;;;;;8.85;100.00;101154.59;5085596;28;20028;-87
2023/10/23 00:53:37;;;;;;;4.60;3.28;;;;;;;8.81;100.00;101141.72;5061790;28;20025;-87
2023/10/23 00:56:06;;;;;;;6.63;3.75;;;;;;;8.81;100.00;101158.47;5060948;28;20040;-87
2023/10/23 00:58:33;;;;;;;3.15;2.85;;;;;;;8.82;100.00;101151.75;5069970;28;20035;-88
2023/10/23 01:01:00;;;;;;;5.15;3.83;;;;;;;8.71;100.00;101157.84;5082919;28;20507;-87
2023/10/23 01:03:26;;;;;;;4.85;3.30;;;;;;;8.79;100.00;101144.91;5059382;28;20048;-87
2023/10/23 01:05:51;;;;;;;3.25;2.72;;;;;;;8.79;100.00;101149.66;5079345;28;20505;-88
2023/10/23 01:08:17;;;;;;;4.50;2.90;;;;;;;8.77;100.00;101152.00;5075021;28;20486;-88
2023/10/23 01:10:43;;;;;;;4.03;3.60;;;;;;;8.65;100.00;101148.13;5064429;28;20034;-87
2023/10/23 01:13:09;;;;;;;4.32;3.05;;;;;;;8.62;100.00;101146.06;5080997;28;20024;-88
2023/10/23 01:15:35;;;;;;;3.97;3.53;;;;;;;8.58;100.00;101133.97;5055592;28;20037;-87
2023/10/23 01:18:01;;;;;;;4.85;3.10;;;;;;;8.72;100.00;101151.09;5062084;28;20082;-87
2023/10/23 01:20:27;;;;;;;6.85;3.63;;;;;;;8.61;100.00;101135.25;5062260;28;20052;-88
2023/10/23 01:22:58;;;;;;;5.40;3.55;;;;;;;8.64;100.00;101160.44;5064026;28;20024;-87
2023/10/23 01:25:23;;;;;;;5.90;3.35;;;;;;;8.63;100.00;101156.03;5061874;28;20414;-88
2023/10/23 01:27:49;;;;;;;3.92;3.03;;;;;;;8.57;100.00;101142.72;5066604;28;20078;-87
2023/10/23 01:30:14;;;;;;;6.10;3.72;;;;;;;8.53;100.00;101149.00;5062225;28;20117;-87
2023/10/23 01:32:40;;;;;;;5.22;3.70;;;;;;;8.63;100.00;101158.81;5061046;28;20024;-88
2023/10/23 01:35:05;;;;;;;3.92;3.53;;;;;;;8.50;100.00;101151.69;5058300;28;20129;-87
2023/10/23 01:37:31;;;;;;;4.95;3.17;;;;;;;8.58;100.00;101167.47;5063729;28;20175;-87
2023/10/23 01:39:57;;;;;;;5.22;3.83;;;;;;;8.47;100.00;101163.56;5063681;28;20030;-88
2023/10/23 01:42:22;;;;;;;6.35;3.65;;;;;;;8.49;100.00;101155.66;5067197;28;20028;-88
2023/10/23 01:44:47;;;;;;;4.30;3.67;;;;;;;8.60;100.00;101165.13;5064411;28;20040;-87
2023/10/23 01:47:13;;;;;;;5.43;3.42;;;;;;;8.45;100.00;101158.31;5062874;28;20028;-87
2023/10/23 01:49:38;;;;;;;9.38;5.05;;;;;;;8.49;100.00;101164.00;5060529;28;20078;-88
2023/10/23 01:52:04;;;;;;;8.13;3.78;;;;;;;8.56;100.00;101172.59;5065606;28;20505;-88
2023/10/23 01:54:29;;;;;;;4.72;3.75;;;;;;;8.48;100.00;101156.81;5066675;28;20031;-88
2023/10/23 01:56:55;;;;;;;4.28;3.65;;;;;;;8.51;100.00;101179.22;5064090;28;20027;-88
2023/10/23 01:59:20;;;;;;;5.38;3.67;;;;;;;8.47;100.00;101183.09;5067674;28;20042;-88
2023/10/23 02:01:45;;;;;;;7.00;4.20;;;;;;;8.44;100.00;101175.44;5064572;28;20591;-88
2023/10/23 02:04:11;;;;;;;5.15;3.70;;;;;;;8.43;100.00;101177.44;5080247;28;20059;-88
2023/10/23 02:06:36;;;;;;;5.68;4.10;;;;;;;8.43;100.00;101184.97;5063775;28;20063;-87
2023/10/23 02:09:02;;;;;;;5.82;4.18;;;;;;;8.53;100.00;101181.66;5063152;28;20024;-88
2023/10/23 02:11:28;;;;;;;9.52;4.85;;;;;;;8.44;100.00;101194.97;5057752;28;20637;-87
2023/10/23 02:13:53;;;;;;;4.55;3.85;;;;;;;8.46;100.00;101190.66;5057388;28;20019;-88
2023/10/23 02:16:19;;;;;;;5.00;4.45;;;;;;;8.30;100.00;101178.59;5059460;28;20073;-87
2023/10/23 02:18:44;;;;;;;6.05;4.15;;;;;;;8.34;100.00;101194.25;5063022;28;20071;-88
2023/10/23 02:21:10;;;;;;;7.03;4.45;;;;;;;8.27;100.00;101191.28;5064812;28;20046;-87
2023/10/23 02:23:35;;;;;;;6.68;4.00;;;;;;;8.40;100.00;101214.34;5063457;28;20034;-88
2023/10/23 02:26:02;;;;;;;7.05;4.35;;;;;;;8.42;100.00;101212.06;5079317;28;20049;-88
2023/10/23 02:28:28;;;;;;;8.30;4.85;;;;;;;8.38;100.00;101210.31;5066024;28;20028;-88
2023/10/23 02:30:54;;;;;;;5.30;4.38;;;;;;;8.33;100.00;101206.59;5080271;28;20028;-88
2023/10/23 02:33:19;;;;;;;7.15;4.57;;;;;;;8.40;100.00;101213.56;5080922;28;20085;-88
2023/10/23 02:35:44;;;;;;;5.93;4.03;;;;;;;8.35;100.00;101215.44;5062502;28;20390;-88
2023/10/23 02:38:10;;;;;;;7.28;4.63;;;;;;;8.36;100.00;101213.44;5069578;28;20020;-89
2023/10/23 02:40:35;;;;;;;4.60;3.60;;;;;;;8.33;100.00;101212.19;5060755;28;20044;-87
2023/10/23 02:43:01;;;;;;;6.15;3.97;;;;;;;8.29;100.00;101214.06;5056629;28;20046;-88
2023/10/23 02:45:26;;;;;;;7.18;4.47;;;;;;;8.25;100.00;101215.91;5081947;28;20114;-87
2023/10/23 02:47:53;;;;;;;5.53;4.10;;;;;;;8.15;100.00;101194.09;5057297;28;20024;-87
2023/10/23 02:50:19;;;;;;;5.00;3.90;;;;;;;8.24;100.00;101208.75;5077646;28;20036;-87
2023/10/23 02:52:44;;;;;;;5.15;4.22;;;;;;;8.15;100.00;101199.69;5060493;28;20119;-88
2023/10/23 02:55:10;;;;;;;6.13;4.38;;;;;;;8.25;100.00;101215.91;5064479;28;20110;-88
2023/10/23 02:57:35;;;;;;;9.13;5.45;;;;;;;8.09;100.00;101199.13;5067826;28;20019;-87
2023/10/23 03:00:01;;;;;;;4.57;4.18;;;;;;;8.20;100.00;101218.13;5058383;28;20067;-87
2023/10/23 03:02:27;;;;;;;6.57;4.38;;;;;;;8.14;100.00;101212.03;5066760;28;20031;-87
2023/10/23 03:04:52;;;;;;;6.10;4.57;;;;;;;8.06;100.00;101207.38;5079651;28;20028;-88
2023/10/23 03:07:17;;;;;;;7.18;4.80;;;;;;;8.09;100.00;101223.41;5084057;28;20112;-87
2023/10/23 03:09:43;;;;;;;4.28;3.85;;;;;;;8.05;100.00;101214.13;5068032;28;20059;-88
2023/10/23 03:12:08;;;;;;;6.53;4.05;;;;;;;8.16;100.00;101223.63;5074017;28;20024;-88
2023/10/23 03:14:33;;;;;;;7.70;4.50;;;;;;;8.04;100.00;101210.53;5065121;28;20051;-87
2023/10/23 03:16:59;;;;;;;6.05;5.45;;;;;;;8.19;100.00;101233.25;5065099;28;20119;-87
2023/10/23 03:19:25;;;;;;;5.47;4.10;;;;;;;8.13;100.00;101213.97;5077908;28;20389;-87
2023/10/23 03:21:51;;;;;;;9.25;4.68;;;;;;;8.26;100.00;101234.25;5063876;28;20387;-87
2023/10/23 03:24:18;;;;;;;6.63;4.78;;;;;;;8.24;100.00;101221.84;5063119;28;20039;-88
2023/10/23 03:26:43;;;;;;;5.60;4.13;;;;;;;8.27;100.00;101230.31;5065447;28;20067;-87
2023/10/23 03:29:08;;;;;;;6.45;4.65;;;;;;;8.37;100.00;101239.34;5061152;28;20039;-87
2023/10/23 03:31:34;;;;;;;5.43;4.18;;;;;;;8.34;100.00;101236.09;5056235;28;20050;-87
2023/10/23 03:34:00;;;;;;;6.97;4.88;;;;;;;8.37;100.00;101239.34;5062667;28;20066;-87
2023/10/23 03:36:25;;;;;;;4.97;4.13;;;;;;;8.38;100.00;101235.41;5065272;28;20028;-87
2023/10/23 03:38:51;;;;;;;7.85;4.53;;;;;;;8.36;100.00;101232.97;5067463;28;20020;-87
2023/10/23 03:41:16;;;;;;;6.85;4.93;;;;;;;8.31;100.00;101225.66;5069628;28;20071;-87
2023/10/23 03:43:42;;;;;;;5.38;4.18;;;;;;;8.33;100.00;101223.34;5069679;28;20032;-88
2023/10/23 03:46:07;;;;;;;5.53;4.47;;;;;;;8.31;100.00;101222.88;5068786;28;20369;-88
2023/10/23 03:48:36;;;;;;;6.18;4.63;;;;;;;8.31;100.00;101217.28;5062278;28;20485;-88
2023/10/23 03:51:02;;;;;;;7.15;4.63;;;;;;;8.31;100.00;101236.03;5064162;28;20119;-87
2023/10/23 03:53:28;;;;;;;7.70;5.25;;;;;;;8.28;100.00;101228.34;5065100;28;20118;-87
2023/10/23 03:55:53;;;;;;;5.85;4.35;;;;;;;8.31;100.00;101231.25;5085293;28;20477;-88
2023/10/23 03:58:19;;;;;;;4.93;3.80;;;;;;;8.21;100.00;101220.59;5065630;28;20474;-88
2023/10/23 04:00:44;;;;;;;7.45;4.78;;;;;;;8.41;100.00;101229.13;5067437;28;20849;-88
2023/10/23 04:03:11;;;;;;;6.15;4.15;;;;;;;8.40;100.00;101236.66;5085143;28;20094;-87
2023/10/23 04:05:45;;;;;;;5.55;4.35;;;;;;;8.34;100.00;101229.72;5056288;28;20035;-88
2023/10/23 04:08:11;;;;;;;6.90;5.10;;;;;;;8.34;100.00;101236.09;5063811;28;20390;-87
2023/10/23 04:10:36;;;;;;;5.47;4.10;;;;;;;8.31;100.00;101236.81;5059940;28;20059;-87
2023/10/23 04:13:02;;;;;;;7.50;4.43;;;;;;;8.19;100.00;101222.09;5064203;28;20401;-87
2023/10/23 04:15:27;;;;;;;9.35;5.82;;;;;;;8.32;100.00;101234.84;5085883;28;20090;-88
2023/10/23 04:17:53;;;;;;;11.07;5.40;;;;;;;8.40;100.00;101239.47;5063875;28;20406;-87
2023/10/23 04:20:18;;;;;;;6.30;4.57;;;;;;;8.50;100.00;101243.78;5066222;28;20127;-88
2023/10/23 04:22:44;;;;;;;9.82;5.43;;;;;;;8.55;100.00;101243.50;5080855;28;20044;-87
2023/10/23 04:25:09;;;;;;;8.15;5.60;;;;;;;8.50;100.00;101239.00;5075570;28;20447;-87
2023/10/23 04:27:35;;;;;;;7.13;4.95;;;;;;;8.50;100.00;101233.41;5061333;28;20028;-87
2023/10/23 04:30:01;;;;;;;6.32;5.00;;;;;;;8.53;100.00;101243.03;5060613;28;20024;-89
2023/10/23 04:32:27;;;;;;;6.30;4.32;;;;;;;8.45;100.00;101242.00;5070888;28;20028;-87
2023/10/23 04:34:53;;;;;;;11.00;5.13;;;;;;;8.42;100.00;101234.38;5065595;28;20108;-88
2023/10/23 04:37:18;;;;;;;7.63;5.03;;;;;;;8.49;100.00;101242.13;5060643;28;20525;-87
2023/10/23 04:39:44;;;;;;;6.13;4.97;;;;;;;8.53;100.00;101248.63;5062636;28;20044;-88
2023/10/23 04:42:09;;;;;;;7.90;5.55;;;;;;;8.44;100.00;101222.88;5065616;28;20048;-88
2023/10/23 04:44:37;;;;;;;7.28;6.00;;;;;;;8.47;100.00;101238.88;5073208;28;20047;-87
2023/10/23 04:47:02;;;;;;;6.75;5.35;;;;;;;8.45;100.00;101227.25;5078048;28;20035;-87
2023/10/23 04:49:28;;;;;;;7.18;5.40;;;;;;;8.34;100.00;101218.56;5083856;28;20036;-88
2023/10/23 04:51:53;;;;;;;7.30;5.38;;;;;;;8.45;100.00;101238.41;5066044;28;20545;-88
2023/10/23 04:54:21;;;;;;;8.82;5.40;;;;;;;8.41;100.00;101240.28;5080144;28;20028;-87
2023/10/23 04:56:47;;;;;;;11.60;4.90;;;;;;;8.34;100.00;101230.53;5081166;28;20036;-87
2023/10/23 04:59:12;;;;;;;11.27;5.60;;;;;;;8.38;100.00;101224.25;5064563;28;20043;-87
2023/10/23 05:01:38;;;;;;;10.07;5.43;;;;;;;8.36;100.00;101210.66;5061051;28;20545;-88
2023/10/23 05:04:04;;;;;;;9.32;5.50;;;;;;;8.50;100.00;101238.19;5061836;28;20766;-88
2023/10/23 05:06:29;;;;;;;6.75;5.28;;;;;;;8.52;100.00;101235.84;5083430;28;20385;-87
2023/10/23 05:08:55;;;;;;;8.38;5.38;;;;;;;8.55;100.00;101237.91;5065319;28;20028;-88
2023/10/23 05:11:20;;;;;;;10.23;6.35;;;;;;;8.55;100.00;101232.34;5061180;28;20019;-87
2023/10/23 05:13:46;;;;;;;8.60;5.85;;;;;;;8.54;100.00;101234.31;5061642;28;20029;-87
2023/10/23 05:16:12;;;;;;;9.05;6.57;;;;;;;8.47;100.00;101222.16;5064505;28;20059;-87
2023/10/23 05:18:40;;;;;;;11.90;7.03;;;;;;;8.59;100.00;101238.84;5066151;28;20484;-88
2023/10/23 05:21:10;;;;;;;8.45;5.57;;;;;;;8.60;100.00;101234.91;5065383;28;20687;-87
2023/10/23 05:23:36;;;;;;;10.35;6.47;;;;;;;8.49;100.00;101226.19;5063023;28;20119;-87
2023/10/23 05:26:02;;;;;;;7.82;5.72;;;;;;;8.57;100.00;101230.00;5060617;28;20090;-87
2023/10/23 05:28:27;;;;;;;10.38;6.43;;;;;;;8.52;100.00;101228.28;5063536;28;20020;-87
2023/10/23 05:30:53;;;;;;;10.55;6.80;;;;;;;8.49;100.00;101231.78;5064399;28;20500;-87
2023/10/23 05:33:19;;;;;;;11.20;6.97;;;;;;;8.45;100.00;101236.44;5058746;28;20032;-87
2023/10/23 05:35:45;;;;;;;10.63;6.75;;;;;;;8.41;100.00;101234.72;5058434;28;20110;-87
2023/10/23 05:38:10;;;;;;;9.98;6.90;;;;;;;8.42;100.00;101236.34;5076263;28;20127;-87
2023/10/23 05:40:35;;;;;;;10.75;6.93;;;;;;;8.39;100.00;101237.00;5075811;28;20406;-87
2023/10/23 05:43:01;;;;;;;9.48;6.25;;;;;;;8.45;100.00;101241.22;5058861;28;20031;-88
2023/10/23 05:45:26;;;;;;;10.57;7.22;;;;;;;8.29;100.00;101222.41;5075456;28;20039;-87
2023/10/23 05:47:52;;;;;;;11.48;7.93;;;;;;;8.41;100.00;101241.13;5057634;28;20023;-87
2023/10/23 05:50:17;;;;;;;11.52;6.90;;;;;;;8.35;100.00;101242.50;5057160;28;20501;-87
2023/10/23 05:52:43;;;;;;;9.50;6.80;;;;;;;8.31;100.00;101236.81;5057590;28;20031;-87
2023/10/23 05:55:08;;;;;;;11.25;7.15;;;;;;;8.43;100.00;101254.69;5083678;28;20038;-88
2023/10/23 05:57:34;;;;;;;11.77;7.15;;;;;;;8.43;100.00;101249.13;5059281;28;20024;-87
2023/10/23 06:00:00;;;;;;;9.35;7.32;;;;;;;8.42;100.00;101259.47;5060750;28;20089;-88
2023/10/23 06:02:26;;;;;;;10.07;7.43;;;;;;;8.43;100.00;101243.53;5063121;28;20027;-87
2023/10/23 06:04:53;;;;;;;13.32;8.70;;;;;;;8.46;100.00;101240.88;5063463;28;20092;-87
2023/10/23 06:07:18;;;;;;;12.32;7.55;;;;;;;8.32;100.00;101237.63;5079131;28;20119;-87
2023/10/23 06:09:44;;;;;;;12.60;7.68;;;;;;;8.40;100.00;101245.03;5058384;28;20494;-87
2023/10/23 06:12:09;;;;;;;10.98;7.47;;;;;;;8.50;100.00;101254.94;5080322;28;20040;-87
2023/10/23 06:14:35;;;;;;;10.82;7.00;;;;;;;8.43;100.00;101249.13;5061736;28;20672;-88
2023/10/23 06:17:01;;;;;;;12.13;7.72;;;;;;;8.36;100.00;101246.91;5060233;28;20490;-88
2023/10/23 06:19:26;;;;;;;11.68;7.43;;;;;;;8.44;100.00;101246.00;5075716;28;20119;-87
2023/10/23 06:21:52;;;;;;;12.65;7.65;;;;;;;8.45;100.00;101244.00;5056525;28;20023;-87
2023/10/23 06:24:17;;;;;;;15.15;8.82;;;;;;;8.44;100.00;101250.75;5059468;28;20064;-87
2023/10/23 06:26:43;;;;;;;14.80;8.30;;;;;;;8.40;100.00;101252.59;5057509;28;20140;-87
2023/10/23 06:29:08;;;;;;;11.68;7.68;;;;;;;8.40;100.00;101249.81;5061274;28;20029;-87
2023/10/23 06:31:33;;;;;;;14.82;8.73;;;;;;;8.26;100.00;101239.03;5060200;28;20048;-87
2023/10/23 06:33:59;;;;;;;12.73;8.80;;;;;;;8.38;100.00;101249.34;5064321;28;20020;-87
2023/10/23 06:36:24;;;;;;;13.88;7.85;;;;;;;8.41;100.00;101251.44;5070322;28;20122;-87
2023/10/23 06:38:50;;;;;;;11.52;7.85;;;;;;;8.34;100.00;101247.25;5072877;28;20056;-87
2023/10/23 06:41:15;;;;;;;14.52;8.65;;;;;;;8.35;100.00;101240.53;5064879;28;20035;-86
2023/10/23 06:43:41;;;;;;;13.32;8.68;;;;;;;8.40;100.00;101245.03;5086077;28;20482;-87
2023/10/23 06:46:06;;;;;;;15.65;8.82;;;;;;;8.54;100.00;101258.63;5069280;28;20039;-87
2023/10/23 06:48:32;;;;;;;13.02;8.00;;;;;;;8.59;100.00;101260.34;5066713;28;20546;-87
2023/10/23 06:50:58;;;;;;;13.98;8.55;;;;;;;8.58;100.00;101255.91;5085890;28;20039;-87
2023/10/23 06:53:24;;;;;;;12.13;7.85;;;;;;;8.54;100.00;101262.22;5058809;28;20066;-86
2023/10/23 06:55:51;;;;;;;11.93;8.43;;;;;;;8.61;100.00;101261.63;5060313;28;20169;-87
2023/10/23 06:58:18;;;;;;;13.95;8.25;;;;;;;8.63;100.00;101250.91;5065293;28;20024;-87
2023/10/23 07:00:44;;;;;;;14.57;9.02;;;;;;;8.65;100.00;101251.38;5061625;28;20043;-87
2023/10/23 07:03:09;;;;;;;14.60;9.32;;;;;;;8.55;100.00;101240.72;5058748;28;20045;-86
2023/10/23 07:05:35;;;;;;;13.48;8.88;;;;;;;8.62;100.00;101240.94;5051743;28;20067;-88
2023/10/23 07:08:00;;;;;;;15.82;9.23;;;;;;;8.72;100.00;101261.91;5059415;28;20075;-88
2023/10/23 07:10:25;;;;;;;37.00;11.15;;;;;;;8.62;100.00;101252.09;5065778;28;20032;-85
2023/10/23 07:12:51;;;;;;;23.52;9.02;;;;;;;8.68;100.00;101261.81;5062023;28;20025;-88
2023/10/23 07:15:16;;;;;;;18.75;9.70;;;;;;;8.61;100.00;101250.44;5062911;28;20060;-87
2023/10/23 07:17:41;;;;;;;15.57;9.20;;;;;;;8.64;100.00;101249.72;5063015;28;20037;-87
2023/10/23 07:20:07;;;;;;;20.08;9.52;;;;;;;8.73;100.00;101257.97;5067979;28;20521;-87
2023/10/23 07:22:33;;;;;;;13.95;8.82;;;;;;;8.78;100.00;101254.09;5080253;28;20021;-87
2023/10/23 07:24:59;;;;;;;18.42;9.52;;;;;;;8.79;100.00;101255.72;5064963;28;20111;-87
2023/10/23 07:27:25;;;;;;;13.88;8.50;;;;;;;8.65;100.00;101237.41;5065431;28;20052;-86
2023/10/23 07:29:51;;;;;;;15.07;8.13;;;;;;;8.78;100.00;101248.53;5067683;28;20028;-86
2023/10/23 07:32:17;;;;;;;16.90;9.68;;;;;;;8.67;100.00;101235.06;5067473;28;20033;-86
2023/10/23 07:34:42;;;;;;;17.38;9.05;;;;;;;8.80;100.00;101246.19;5065329;28;20048;-86
2023/10/23 07:37:07;;;;;;;17.20;9.02;;;;;;;8.80;100.00;101257.34;5066850;28;20032;-86
2023/10/23 07:39:33;;;;;;;15.18;9.02;;;;;;;8.86;100.00;101251.16;5063586;28;20024;-87
2023/10/23 07:41:58;;;;;;;15.98;9.80;;;;;;;8.86;100.00;101247.56;5070488;28;20024;-87
2023/10/23 07:44:24;;;;;;;14.73;8.13;;;;;;;8.82;100.00;101243.84;5067070;28;20119;-86
2023/10/23 07:46:49;;;;;;;14.45;8.98;;;;;;;8.90;100.00;101254.03;5069964;28;20059;-87
2023/10/23 07:49:15;;;;;;;13.73;8.40;;;;;;;8.98;100.00;101266.19;5063190;28;20024;-86
2023/10/23 07:51:40;;;;;;;14.07;9.93;;;;;;;9.02;100.00;101265.13;5062707;28;20020;-87
2023/10/23 07:54:06;;;;;;;13.85;9.20;;;;;;;8.91;100.00;101258.44;5062644;28;20024;-86
2023/10/23 07:56:31;;;;;;;17.60;9.95;;;;;;;8.89;100.00;101260.78;5061271;28;20017;-86
2023/10/23 07:58:57;;;;;;;16.05;9.35;;;;;;;8.89;100.00;101267.16;5060432;28;20148;-86
2023/10/23 08:01:22;;;;;;;21.40;12.77;;;;;;;8.95;100.00;101257.38;5059676;28;20024;-86
2023/10/23 08:03:48;;;;;;;15.88;10.45;;;;;;;8.89;100.00;101260.78;5059050;28;20051;-86
2023/10/23 08:06:14;;;;;;;18.50;10.43;;;;;;;8.98;100.00;101261.44;5067774;28;20402;-86
2023/10/23 08:08:41;;;;;;;21.35;12.07;;;;;;;8.99;100.00;101263.06;5063391;28;20074;-86
2023/10/23 08:11:08;;;;;;;21.27;12.68;;;;;;;8.96;100.00;101249.81;5059362;28;20024;-86
2023/10/23 08:13:34;;;;;;;22.48;13.13;;;;;;;9.04;100.00;101254.41;5060717;28;20155;-85
2023/10/23 08:16:00;;;;;;;19.02;11.10;;;;;;;8.89;100.00;101241.25;5059388;28;20060;-85
2023/10/23 08:18:26;;;;;;;20.15;11.63;;;;;;;8.95;100.00;101242.59;5061448;28;20070;-86
2023/10/23 08:20:51;;;;;;;23.90;13.55;;;;;;;9.06;100.00;101252.06;5059146;28;20029;-86
2023/10/23 08:23:16;;;;;;;23.13;13.10;;;;;;;9.01;100.00;101252.34;5063313;28;20079;-86
2023/10/23 08:25:44;;;;;;;21.15;13.55;;;;;;;9.09;100.00;101254.16;5063765;28;20036;-85
2023/10/23 08:28:09;;;;;;;26.75;14.60;;;;;;;9.21;100.00;101255.25;5062998;28;20111;-86
2023/10/23 08:30:34;;;;;;;26.77;15.55;;;;;;;9.25;100.00;101262.53;5059990;28;20109;-86
2023/10/23 08:33:00;;;;;;;27.40;15.48;;;;;;;9.23;100.00;101261.28;5074881;28;20124;-86
2023/10/23 08:35:28;;;;;;;27.98;15.02;;;;;;;9.23;100.00;101258.47;5054021;28;20025;-86
2023/10/23 08:37:54;;;;;;;28.95;15.80;;;;;;;9.33;100.00;101266.34;5060785;28;20021;-86
2023/10/23 08:40:20;;;;;;;34.03;16.42;;;;;;;9.37;100.00;101258.84;5058979;28;20028;-86
2023/10/23 08:42:46;;;;;;;33.25;16.27;;;;;;;9.38;100.00;101263.25;5058892;28;20552;-87
2023/10/23 08:45:14;;;;;;;32.78;17.23;;;;;;;9.44;100.00;101261.81;5064500;28;20032;-87
2023/10/23 08:47:39;;;;;;;35.28;16.75;;;;;;;9.38;100.00;101243.69;5060454;28;20024;-87
2023/10/23 08:50:05;;;;;;;27.13;14.93;;;;;;;9.45;100.00;101266.25;5055800;28;20409;-86
2023/10/23 08:52:43;;;;;;;33.35;15.98;;;;;;;9.47;100.00;101263.91;5063751;28;20036;-86
2023/10/23 08:55:11;;;;;;;27.70;13.70;;;;;;;9.42;100.00;101260.56;5054077;28;20029;-86
2023/10/23 08:57:41;;;;;;;27.83;15.55;;;;;;;9.57;100.00;101268.94;5061244;28;20028;-85
2023/10/23 09:00:07;;;;;;;28.42;16.25;;;;;;;9.52;100.00;101266.41;5056523;28;20043;-86
2023/10/23 09:02:33;;;;;;;32.00;14.80;;;;;;;9.56;100.00;101272.91;5054946;28;20032;-86
2023/10/23 09:04:59;;;;;;;30.63;14.18;;;;;;;9.48;100.00;101248.75;5059291;28;20438;-85
2023/10/23 09:07:24;;;;;;;32.35;15.55;;;;;;;9.64;100.00;101262.72;5062764;28;20054;-85
2023/10/23 09:09:49;;;;;;;31.02;16.15;;;;;;;9.66;100.00;101268.75;5065965;28;20028;-85
2023/10/23 09:12:35;;;;;;;32.30;15.10;;;;;;;9.78;100.00;101273.41;5063108;28;20178;-85
2023/10/23 09:15:24;;;;;;;35.92;17.00;;;;;;;9.78;100.00;101267.81;5063636;28;20049;-86
2023/10/23 09:17:50;;;;;;;30.63;15.60;;;;;;;9.86;100.00;101271.63;5077381;28;20078;-85
2023/10/23 09:20:16;;;;;;;29.92;13.80;;;;;;;9.81;100.00;101264.31;5078074;28;20020;-85
2023/10/23 09:22:46;;;;;;;31.23;15.77;;;;;;;9.76;100.00;101243.06;5080540;28;20024;-87
2023/10/23 09:25:11;;;;;;;25.10;14.25;;;;;;;9.97;100.00;101256.72;5062009;28;20079;-86
2023/10/23 09:27:37;;;;;;;29.00;14.77;;;;;;;9.83;100.00;101231.22;5063099;28;20489;-86
2023/10/23 09:30:03;;;;;;;28.10;13.65;;;;;;;9.86;100.00;101257.63;5062069;28;20024;-86
2023/10/23 09:32:29;;;;;;;21.80;12.18;;;;;;;9.91;100.00;101248.97;5078227;28;20023;-86
2023/10/23 09:34:56;;;;;;;24.80;12.55;;;;;;;9.97;100.00;101253.91;5075544;28;20032;-85
2023/10/23 09:37:24;;;;;;;25.10;13.00;;;;;;;9.93;100.00;101246.63;5079057;28;20028;-86
2023/10/23 09:39:50;;;;;;;28.45;14.27;;;;;;;9.91;100.00;101244.19;5080372;28;20028;-86
2023/10/23 09:42:18;;;;;;;29.17;13.65;;;;;;;9.89;100.00;101240.94;5067920;28;20035;-85
2023/10/23 09:44:45;;;;;;;18.80;12.00;;;;;;;9.97;100.00;101237.16;5060597;28;20102;-86
2023/10/23 09:47:11;;;;;;;26.70;13.10;;;;;;;10.10;100.00;101251.00;5057828;28;20035;-86
2023/10/23 09:49:39;;;;;;;23.70;12.75;;;;;;;10.11;100.00;101241.44;5082941;28;21142;-86
2023/10/23 09:52:07;;;;;;;20.90;13.05;;;;;;;10.16;100.00;101250.34;5065914;28;20474;-85
2023/10/23 09:54:36;;;;;;;22.83;11.55;;;;;;;10.13;100.00;101251.06;5061542;28;20034;-85
2023/10/23 09:57:04;;;;;;;26.27;13.45;;;;;;;10.10;100.00;101239.81;5082600;28;20089;-85
2023/10/23 09:59:37;;;;;;;28.58;14.75;;;;;;;10.22;100.00;101250.06;5068625;28;20289;-85
2023/10/23 10:02:06;;;;;;;30.65;16.05;;;;;;;10.25;100.00;101252.94;5082012;28;20039;-86
2023/10/23 10:04:50;;;;;;;25.75;13.63;;;;;;;10.28;100.00;101238.19;5069989;28;20049;-85
2023/10/23 10:07:26;;;;;;;25.95;13.35;;;;;;;10.27;100.00;101256.16;5060983;28;20077;-86
2023/10/23 10:09:51;;;;;;;30.00;15.63;;;;;;;10.30;100.00;101244.25;5082370;28;20036;-85
2023/10/23 10:12:18;;;;;;;27.98;14.18;;;;;;;10.34;100.00;101242.34;5066390;28;20035;-86
2023/10/23 10:14:45;;;;;;;28.98;13.88;;;;;;;10.27;100.00;101244.19;5058310;28;20469;-85
2023/10/23 10:17:11;;;;;;;32.15;15.13;;;;;;;10.40;100.00;101247.69;5060266;28;20113;-85
2023/10/23 10:19:38;;;;;;;26.52;12.88;;;;;;;10.42;100.00;101256.50;5060099;28;20422;-85
2023/10/23 10:22:22;;;;;;;29.85;15.25;;;;;;;10.42;100.00;101246.13;5079475;28;20565;-85
2023/10/23 10:24:48;;;;;;;31.13;14.82;;;;;;;10.49;100.00;101245.47;5067921;28;20557;-85
2023/10/23 10:27:14;;;;;;;27.42;14.38;;;;;;;10.59;100.00;101250.47;5062459;28;20366;-85
2023/10/23 10:29:39;;;;;;;34.50;14.57;;;;;;;10.52;100.00;101244.72;5062822;28;20077;-85
2023/10/23 10:32:09;;;;;;;35.17;15.50;;;;;;;10.64;100.00;101257.75;5061238;28;20085;-85
2023/10/23 10:34:36;;;;;;;31.15;15.13;;;;;;;10.65;100.00;101251.78;5064111;28;20035;-85
2023/10/23 10:37:04;;;;;;;35.13;16.58;;;;;;;10.73;100.00;101245.16;5058768;28;20016;-84
2023/10/23 10:39:59;;;;;;;35.63;17.05;;;;;;;10.78;100.00;101244.84;5054988;28;21401;-85
2023/10/23 10:42:29;;;;;;;35.15;16.40;;;;;;;10.83;100.00;101238.13;5055211;28;20047;-85
2023/10/23 10:44:54;;;;;;;35.53;15.02;;;;;;;10.95;100.00;101242.75;5059673;28;20071;-85
2023/10/23 10:47:21;;;;;;;43.72;17.85;;;;;;;10.91;100.00;101227.88;5076393;28;20135;-85
2023/10/23 10:49:47;;;;;;;41.13;16.83;;;;;;;10.95;100.00;101231.56;5056820;28;21942;-85
2023/10/23 10:52:27;;;;;;;40.22;17.23;;;;;;;10.98;100.00;101230.78;5075515;28;20531;-85
2023/10/23 10:54:55;;;;;;;38.53;16.90;;;;;;;11.02;100.00;101240.06;5074303;28;20024;-85
2023/10/23 10:57:20;;;;;;;35.85;16.63;;;;;;;10.95;100.00;101239.97;5058636;28;20028;-85
2023/10/23 10:59:46;;;;;;;39.33;18.58;;;;;;;10.93;100.00;101243.13;5061044;28;20051;-85
2023/10/23 11:02:11;;;;;;;45.33;18.15;;;;;;;10.74;100.00;101213.16;5060919;28;20100;-85
2023/10/23 11:04:37;;;;;;;38.88;18.33;;;;;;;10.90;100.00;101232.69;5063623;28;20409;-85
2023/10/23 11:07:02;;;;;;;39.28;17.55;;;;;;;10.91;100.00;101233.47;5060417;28;20044;-85
2023/10/23 11:09:27;;;;;;;44.05;18.40;;;;;;;10.91;100.00;101231.47;5059362;28;20028;-85
2023/10/23 11:11:57;;;;;;;37.75;16.90;;;;;;;10.94;100.00;101229.91;5056390;28;20035;-86